Time;durP1;ratioP1;P1;durP2;ratioP2;P2;SDS_P1;SDS_P2;PMS_P1;PMS_P2;Temp;Humidity;BMP_temperature;BMP_pressure;BME280_temperature;BME280_humidity;BME280_pressure;Samples;Min_cycle;Max_cycle;Signal;HPM_P1;HPM_P2
2024/02/26 00:00:35;;;;;;;5.90;2.60;;;;;;;0.98;100.00;100585.91;5022749;28;20087;-71
2024/02/26 00:03:01;;;;;;;3.37;2.20;;;;;;;1.02;100.00;100569.13;5020273;28;20065;-72
2024/02/26 00:05:27;;;;;;;3.57;2.33;;;;;;;0.94;100.00;100557.38;5003172;28;20045;-72
2024/02/26 00:07:53;;;;;;;3.70;2.20;;;;;;;1.07;100.00;100558.44;5018367;28;20598;-72
2024/02/26 00:10:19;;;;;;;7.47;2.77;;;;;;;1.19;100.00;100576.13;5051542;28;20395;-73
2024/02/26 00:12:45;;;;;;;3.47;2.57;;;;;;;1.14;100.00;100558.06;5001891;28;20384;-74
2024/02/26 00:15:12;;;;;;;3.73;2.40;;;;;;;1.08;100.00;100555.75;5018233;28;20083;-73
2024/02/26 00:17:38;;;;;;;11.03;2.80;;;;;;;1.11;100.00;100547.75;5035168;28;20060;-73
2024/02/26 00:20:08;;;;;;;4.43;2.47;;;;;;;1.03;100.00;100557.75;4962393;28;20064;-73
2024/02/26 00:22:35;;;;;;;4.65;2.25;;;;;;;1.03;100.00;100565.59;4979191;28;20057;-73
2024/02/26 00:25:01;;;;;;;4.83;2.63;;;;;;;1.06;100.00;100559.38;4961865;28;20111;-73
2024/02/26 00:27:29;;;;;;;12.00;2.83;;;;;;;1.09;100.00;100572.31;4946058;28;20038;-73
2024/02/26 00:29:55;;;;;;;6.00;3.30;;;;;;;1.02;100.00;100552.59;4961750;28;20188;-71
2024/02/26 00:32:21;;;;;;;6.07;2.67;;;;;;;1.04;100.00;100563.81;4971061;28;20106;-72
2024/02/26 00:34:47;;;;;;;5.20;2.63;;;;;;;1.03;100.00;100551.69;4955227;28;20482;-71
2024/02/26 00:37:13;;;;;;;2.83;2.10;;;;;;;1.06;100.00;100544.50;4971231;28;20043;-71
2024/02/26 00:39:39;;;;;;;4.37;2.27;;;;;;;1.06;100.00;100534.03;4987529;28;20055;-71
2024/02/26 00:42:05;;;;;;;4.77;2.37;;;;;;;1.00;100.00;100538.75;4971803;28;20062;-70
2024/02/26 00:44:31;;;;;;;4.70;2.67;;;;;;;1.00;100.00;100551.84;4987495;28;20073;-71
2024/02/26 00:47:02;;;;;;;3.33;2.20;;;;;;;1.12;100.00;100548.59;4970803;28;20532;-73
2024/02/26 00:49:28;;;;;;;4.00;2.30;;;;;;;0.96;100.00;100552.88;4939020;28;20050;-65
2024/02/26 00:51:54;;;;;;;4.67;2.40;;;;;;;0.98;100.00;100548.44;4954971;28;20062;-70
2024/02/26 00:54:19;;;;;;;4.00;2.27;;;;;;;1.03;100.00;100549.06;4954597;28;20101;-70
2024/02/26 00:56:45;;;;;;;4.83;2.20;;;;;;;0.99;100.00;100539.66;4983322;28;20053;-70
2024/02/26 00:59:11;;;;;;;3.53;2.07;;;;;;;0.98;100.00;100546.69;4980774;28;20052;-71
2024/02/26 01:01:37;;;;;;;3.43;2.10;;;;;;;0.94;100.00;100549.53;4997087;28;20513;-72
2024/02/26 01:04:03;;;;;;;2.97;2.03;;;;;;;0.98;100.00;100546.69;5013935;28;20053;-72
2024/02/26 01:06:29;;;;;;;3.63;2.27;;;;;;;0.84;100.00;100543.03;5018154;28;20045;-71
2024/02/26 01:08:54;;;;;;;7.23;2.30;;;;;;;0.90;100.00;100538.34;5001132;28;20053;-72
2024/02/26 01:11:22;;;;;;;4.40;2.07;;;;;;;0.91;100.00;100549.66;5001652;28;20126;-72
2024/02/26 01:13:49;;;;;;;2.57;1.90;;;;;;;0.88;100.00;100555.88;5034000;28;20072;-73
2024/02/26 01:16:15;;;;;;;3.93;2.10;;;;;;;0.95;100.00;100539.00;5019726;28;20135;-73
2024/02/26 01:18:42;;;;;;;3.53;1.90;;;;;;;1.00;100.00;100542.19;5022481;28;20439;-73
2024/02/26 01:21:08;;;;;;;3.80;2.20;;;;;;;0.83;100.00;100552.63;5005703;28;20041;-74
2024/02/26 01:23:35;;;;;;;4.23;2.37;;;;;;;0.92;100.00;100538.28;5001375;28;20132;-72
2024/02/26 01:26:02;;;;;;;6.10;2.10;;;;;;;0.98;100.00;100537.97;5033965;28;20048;-73
2024/02/26 01:28:28;;;;;;;4.10;2.33;;;;;;;1.03;100.00;100541.22;5001322;28;20079;-73
2024/02/26 01:30:54;;;;;;;6.00;1.97;;;;;;;0.88;100.00;100531.50;5000838;28;20072;-74
2024/02/26 01:33:20;;;;;;;5.90;2.00;;;;;;;0.79;100.00;100524.97;5001492;28;20045;-75
2024/02/26 01:35:47;;;;;;;2.93;2.00;;;;;;;0.83;100.00;100528.28;5018056;28;20064;-74
2024/02/26 01:38:13;;;;;;;4.23;1.97;;;;;;;0.81;100.00;100541.44;5033761;28;20045;-73
2024/02/26 01:40:40;;;;;;;3.13;1.97;;;;;;;0.84;100.00;100527.34;5001002;28;20064;-73
2024/02/26 01:43:06;;;;;;;2.70;2.00;;;;;;;0.94;100.00;100546.91;5017956;28;20072;-74
2024/02/26 01:45:32;;;;;;;4.13;2.03;;;;;;;0.85;100.00;100535.13;5000933;28;20083;-74
2024/02/26 01:47:58;;;;;;;3.63;2.00;;;;;;;0.85;100.00;100542.09;5000833;28;20547;-73
2024/02/26 01:50:24;;;;;;;4.90;2.00;;;;;;;0.90;100.00;100519.19;5000715;28;20037;-74
2024/02/26 01:52:51;;;;;;;5.20;2.00;;;;;;;0.92;100.00;100522.59;5001523;28;20045;-74
2024/02/26 01:55:22;;;;;;;5.53;2.20;;;;;;;0.86;100.00;100525.50;5034275;28;20419;-74
2024/02/26 01:57:52;;;;;;;3.50;2.03;;;;;;;0.87;100.00;100543.75;5034560;28;20471;-74
2024/02/26 02:00:18;;;;;;;2.80;1.90;;;;;;;0.90;100.00;100520.06;5034605;28;20118;-75
2024/02/26 02:02:46;;;;;;;3.50;2.00;;;;;;;0.79;100.00;100521.50;5034351;28;20041;-76
2024/02/26 02:05:14;;;;;;;3.87;2.20;;;;;;;0.80;100.00;100537.09;5017507;28;20439;-71
2024/02/26 02:07:42;;;;;;;3.53;1.90;;;;;;;0.86;100.00;100521.09;5034092;28;20376;-74
2024/02/26 02:10:08;;;;;;;2.97;2.17;;;;;;;0.83;100.00;100525.66;5017495;28;20053;-74
2024/02/26 02:12:34;;;;;;;3.37;2.33;;;;;;;0.90;100.00;100513.97;5034217;28;20052;-73
2024/02/26 02:15:00;;;;;;;3.23;1.80;;;;;;;0.94;100.00;100513.75;5004549;28;20060;-74
2024/02/26 02:17:29;;;;;;;5.53;2.13;;;;;;;0.90;100.00;100521.81;5006154;28;20049;-75
2024/02/26 02:19:56;;;;;;;4.57;2.00;;;;;;;0.79;100.00;100516.25;5005211;28;20037;-74
2024/02/26 02:22:22;;;;;;;3.30;1.90;;;;;;;0.77;100.00;100518.13;5004929;28;20045;-76
2024/02/26 02:24:49;;;;;;;3.40;2.00;;;;;;;0.81;100.00;100523.13;5004274;28;20505;-74
2024/02/26 02:27:15;;;;;;;4.20;2.13;;;;;;;0.76;100.00;100512.03;5003950;28;20087;-74
2024/02/26 02:29:41;;;;;;;4.23;1.87;;;;;;;0.78;100.00;100522.44;5037398;28;20073;-75
2024/02/26 02:32:07;;;;;;;3.70;2.00;;;;;;;0.81;100.00;100506.59;5003890;28;20602;-74
2024/02/26 02:34:34;;;;;;;2.97;1.97;;;;;;;0.73;100.00;100506.97;5020429;28;20051;-74
2024/02/26 02:37:00;;;;;;;2.33;2.00;;;;;;;0.74;100.00;100520.91;5003961;28;20048;-74
2024/02/26 02:39:26;;;;;;;6.30;2.10;;;;;;;0.56;100.00;100519.16;5003956;28;20149;-74
2024/02/26 02:41:51;;;;;;;3.17;1.63;;;;;;;0.51;100.00;100511.53;5020442;28;20510;-74
2024/02/26 02:44:18;;;;;;;3.93;1.73;;;;;;;0.56;100.00;100504.31;5037155;28;20098;-74
2024/02/26 02:46:44;;;;;;;3.57;2.00;;;;;;;0.54;100.00;100505.34;5003579;28;20242;-74
2024/02/26 02:49:10;;;;;;;2.90;1.70;;;;;;;0.59;100.00;100495.47;5023122;28;20059;-75
2024/02/26 02:51:37;;;;;;;3.27;1.70;;;;;;;0.49;100.00;100507.31;4990854;28;20060;-73
2024/02/26 02:54:04;;;;;;;5.83;1.97;;;;;;;0.49;100.00;100510.78;5023369;28;20131;-72
2024/02/26 02:56:29;;;;;;;4.53;1.90;;;;;;;0.40;100.00;100510.38;5019453;28;20049;-71
2024/02/26 02:58:56;;;;;;;3.23;1.93;;;;;;;0.52;100.00;100515.00;5003182;28;20144;-72
2024/02/26 03:01:22;;;;;;;4.83;1.97;;;;;;;0.42;100.00;100506.75;4986582;28;20148;-72
2024/02/26 03:03:48;;;;;;;3.80;1.83;;;;;;;0.50;100.00;100514.22;5019300;28;20487;-71
2024/02/26 03:06:14;;;;;;;7.90;2.30;;;;;;;0.38;100.00;100507.84;4985163;28;20056;-72
2024/02/26 03:08:41;;;;;;;2.57;1.83;;;;;;;0.50;100.00;100509.84;4999936;28;20556;-76
2024/02/26 03:11:07;;;;;;;4.20;2.33;;;;;;;0.44;100.00;100510.16;5015722;28;20067;-71
2024/02/26 03:13:33;;;;;;;4.17;2.17;;;;;;;0.48;100.00;100505.63;5016449;28;20279;-72
2024/02/26 03:16:04;;;;;;;3.27;1.80;;;;;;;0.50;100.00;100511.59;5034019;28;20128;-70
2024/02/26 03:18:30;;;;;;;3.70;2.00;;;;;;;0.33;100.00;100501.97;4999429;28;20068;-68
2024/02/26 03:20:56;;;;;;;3.50;2.30;;;;;;;0.33;100.00;100495.88;5036291;28;20049;-71
2024/02/26 03:23:22;;;;;;;4.03;2.10;;;;;;;0.28;100.00;100493.50;5053440;28;20052;-70
2024/02/26 03:25:48;;;;;;;2.73;2.00;;;;;;;0.25;100.00;100495.44;5056973;28;20067;-71
2024/02/26 03:28:14;;;;;;;3.97;2.30;;;;;;;0.20;100.00;100500.03;5019073;28;20037;-71
2024/02/26 03:30:40;;;;;;;2.40;2.00;;;;;;;0.34;100.00;100487.16;5035654;28;20076;-70
2024/02/26 03:33:05;;;;;;;2.73;1.70;;;;;;;0.41;100.00;100493.75;5019376;28;20110;-68
2024/02/26 03:35:31;;;;;;;4.17;2.10;;;;;;;0.23;100.00;100487.63;5035476;28;20056;-69
2024/02/26 03:37:58;;;;;;;3.97;2.03;;;;;;;0.31;100.00;100492.53;5019160;28;20037;-70
2024/02/26 03:40:24;;;;;;;2.07;1.60;;;;;;;0.28;100.00;100487.44;5035657;28;20040;-70
2024/02/26 03:42:52;;;;;;;3.50;1.90;;;;;;;0.34;100.00;100485.38;5003192;28;20045;-70
2024/02/26 03:45:18;;;;;;;4.30;2.10;;;;;;;0.39;100.00;100492.97;5019485;28;20049;-70
2024/02/26 03:47:45;;;;;;;6.60;2.10;;;;;;;0.34;100.00;100518.50;5036413;28;20096;-72
2024/02/26 03:50:11;;;;;;;5.50;2.17;;;;;;;0.30;100.00;100498.66;5020714;28;20056;-71
2024/02/26 03:52:38;;;;;;;3.33;2.30;;;;;;;0.25;100.00;100498.03;5004382;28;20246;-71
2024/02/26 03:55:04;;;;;;;3.90;2.20;;;;;;;0.26;100.00;100487.53;5002936;28;20044;-71
2024/02/26 03:57:30;;;;;;;2.30;1.97;;;;;;;0.26;100.00;100500.59;5002590;28;20122;-73
2024/02/26 03:59:57;;;;;;;3.77;2.20;;;;;;;0.12;100.00;100494.31;5002769;28;20483;-72
2024/02/26 04:02:23;;;;;;;3.57;2.30;;;;;;;0.12;100.00;100491.69;5001699;28;20064;-71
2024/02/26 04:04:49;;;;;;;4.70;3.17;;;;;;;0.23;100.00;100486.81;5018644;28;20083;-72
2024/02/26 04:07:16;;;;;;;4.93;2.13;;;;;;;0.24;100.00;100493.72;5027109;28;20036;-74
2024/02/26 04:09:43;;;;;;;3.63;2.20;;;;;;;0.19;100.00;100487.84;5032862;28;20044;-74
2024/02/26 04:12:09;;;;;;;4.70;2.20;;;;;;;0.15;100.00;100491.53;5008026;28;20056;-69
2024/02/26 04:14:36;;;;;;;6.07;2.30;;;;;;;0.25;100.00;100498.88;4985193;28;20056;-70
2024/02/26 04:17:03;;;;;;;4.43;2.40;;;;;;;0.21;100.00;100497.34;4972959;28;20389;-69
2024/02/26 04:19:29;;;;;;;4.00;2.50;;;;;;;0.16;100.00;100495.84;4973080;28;20078;-69
2024/02/26 04:21:55;;;;;;;5.67;2.60;;;;;;;0.13;100.00;100503.81;4973451;28;20069;-69
2024/02/26 04:24:21;;;;;;;6.33;2.57;;;;;;;0.09;100.00;100499.66;4995656;28;20041;-69
2024/02/26 04:26:47;;;;;;;10.27;2.60;;;;;;;0.19;100.00;100503.53;4977611;28;20049;-74
2024/02/26 04:29:13;;;;;;;5.13;2.37;;;;;;;0.22;100.00;100503.38;4981203;28;20075;-75
2024/02/26 04:32:07;;;;;;;7.90;2.50;;;;;;;0.20;100.00;100503.47;4978798;28;20156;-71
2024/02/26 04:34:45;;;;;;;3.73;2.30;;;;;;;0.20;100.00;100494.78;4939096;28;20055;-69
2024/02/26 04:37:11;;;;;;;8.77;3.00;;;;;;;0.13;100.00;100502.06;4925326;28;20054;-68
2024/02/26 04:39:37;;;;;;;5.97;2.63;;;;;;;0.11;100.00;100495.22;4956443;28;20058;-70
2024/02/26 04:42:03;;;;;;;5.43;2.50;;;;;;;0.00;100.00;100499.19;4942218;28;20058;-69
2024/02/26 04:44:30;;;;;;;5.77;2.43;;;;;;;-0.04;100.00;100499.38;4994632;28;20049;-68
2024/02/26 04:46:56;;;;;;;5.53;3.17;;;;;;;-0.01;100.00;100497.50;5044740;28;20036;-70
2024/02/26 04:49:22;;;;;;;3.90;2.10;;;;;;;0.13;100.00;100489.00;5019665;28;20053;-68
2024/02/26 04:51:48;;;;;;;4.10;2.40;;;;;;;0.11;100.00;100500.47;5019892;28;20036;-68
2024/02/26 04:54:17;;;;;;;5.43;2.87;;;;;;;0.13;100.00;100506.44;5027143;28;20041;-68
2024/02/26 04:56:44;;;;;;;5.63;2.67;;;;;;;0.21;100.00;100497.34;5023309;28;20033;-68
2024/02/26 04:59:11;;;;;;;3.50;2.50;;;;;;;0.25;100.00;100500.66;5051033;28;20524;-70
2024/02/26 05:01:40;;;;;;;4.87;2.60;;;;;;;0.12;100.00;100504.75;5054171;28;20070;-69
2024/02/26 05:04:06;;;;;;;6.47;2.70;;;;;;;0.08;100.00;100500.59;5001543;28;20452;-69
2024/02/26 05:06:32;;;;;;;4.60;2.67;;;;;;;0.07;100.00;100504.09;5051944;28;20043;-70
2024/02/26 05:08:57;;;;;;;8.03;3.47;;;;;;;-0.01;100.00;100488.81;5035363;28;20045;-70
2024/02/26 05:11:24;;;;;;;4.10;2.40;;;;;;;0.03;100.00;100484.28;5018979;28;20498;-69
2024/02/26 05:13:50;;;;;;;4.17;2.80;;;;;;;-0.05;100.00;100490.69;5018575;28;20052;-69
2024/02/26 05:16:20;;;;;;;6.57;2.90;;;;;;;0.03;100.00;100504.25;5019003;28;20391;-70
2024/02/26 05:18:45;;;;;;;4.93;2.63;;;;;;;-0.01;100.00;100491.41;5037551;28;20127;-70
2024/02/26 05:21:11;;;;;;;7.17;3.20;;;;;;;-0.13;100.00;100491.97;5020978;28;20090;-69
2024/02/26 05:23:37;;;;;;;6.60;3.03;;;;;;;-0.10;100.00;100489.22;5005246;28;20052;-69
2024/02/26 05:26:03;;;;;;;6.17;3.03;;;;;;;0.02;100.00;100513.94;5054188;28;20040;-69
2024/02/26 05:28:30;;;;;;;9.17;2.93;;;;;;;0.15;100.00;100502.00;5037262;28;20048;-69
2024/02/26 05:30:58;;;;;;;5.17;2.77;;;;;;;0.22;100.00;100496.41;5035829;28;20121;-69
2024/02/26 05:33:23;;;;;;;5.10;2.80;;;;;;;0.15;100.00;100491.53;5054171;28;20033;-69
2024/02/26 05:35:49;;;;;;;6.43;2.80;;;;;;;0.16;100.00;100511.50;5037487;28;20040;-69
2024/02/26 05:38:15;;;;;;;6.40;2.77;;;;;;;0.22;100.00;100488.56;5032256;28;20061;-69
2024/02/26 05:40:41;;;;;;;8.00;2.67;;;;;;;0.38;100.00;100491.28;4999006;28;20059;-69
2024/02/26 05:43:06;;;;;;;8.67;3.00;;;;;;;0.47;100.00;100496.94;4999897;28;20144;-69
2024/02/26 05:45:32;;;;;;;4.40;2.70;;;;;;;0.48;100.00;100498.63;5000351;28;20531;-69
2024/02/26 05:47:58;;;;;;;5.60;2.47;;;;;;;0.59;100.00;100487.63;5019769;28;20382;-69
2024/02/26 05:50:24;;;;;;;7.07;3.43;;;;;;;0.65;100.00;100505.63;5020339;28;20049;-70
2024/02/26 05:52:50;;;;;;;8.23;3.00;;;;;;;0.59;100.00;100491.09;4988233;28;20059;-69
2024/02/26 05:55:16;;;;;;;5.67;3.30;;;;;;;0.59;100.00;100500.72;5003858;28;20423;-69
2024/02/26 05:57:41;;;;;;;13.73;3.20;;;;;;;0.62;100.00;100492.72;5003971;28;20045;-69
2024/02/26 06:00:08;;;;;;;4.23;2.80;;;;;;;0.72;100.00;100496.59;5003782;28;20585;-69
2024/02/26 06:02:40;;;;;;;5.27;2.77;;;;;;;0.66;100.00;100508.16;5053467;28;20049;-69
2024/02/26 06:05:08;;;;;;;5.23;2.80;;;;;;;0.69;100.00;100507.19;5020487;28;20156;-69
2024/02/26 06:07:34;;;;;;;4.77;2.90;;;;;;;0.52;100.00;100504.56;5004073;28;20056;-69
2024/02/26 06:10:02;;;;;;;6.17;3.20;;;;;;;0.48;100.00;100503.84;4987727;28;20134;-69
2024/02/26 06:12:30;;;;;;;5.87;3.10;;;;;;;0.36;100.00;100499.22;4988209;28;20503;-69
2024/02/26 06:14:57;;;;;;;5.27;3.30;;;;;;;0.39;100.00;100495.59;5025514;28;20049;-69
2024/02/26 06:17:23;;;;;;;7.80;3.20;;;;;;;0.38;100.00;100504.38;5041141;28;20387;-69
2024/02/26 06:19:48;;;;;;;8.43;4.33;;;;;;;0.29;100.00;100510.03;5024376;28;20049;-69
2024/02/26 06:22:14;;;;;;;10.00;2.87;;;;;;;0.23;100.00;100500.69;5024404;28;20193;-69
2024/02/26 06:24:40;;;;;;;10.27;3.33;;;;;;;0.15;100.00;100502.84;5040502;28;20043;-69
2024/02/26 06:27:06;;;;;;;7.77;3.20;;;;;;;0.21;100.00;100530.44;5057131;28;20044;-69
2024/02/26 06:29:31;;;;;;;6.30;3.10;;;;;;;0.22;100.00;100493.78;5023970;28;20086;-69
2024/02/26 06:31:57;;;;;;;5.37;3.10;;;;;;;0.28;100.00;100485.66;5057118;28;20102;-69
2024/02/26 06:34:23;;;;;;;8.63;3.43;;;;;;;0.22;100.00;100491.19;5024257;28;20135;-69
2024/02/26 06:36:50;;;;;;;5.87;3.57;;;;;;;0.23;100.00;100492.03;5057318;28;20106;-69
2024/02/26 06:39:16;;;;;;;7.93;3.20;;;;;;;0.40;100.00;100485.06;5040516;28;20989;-69
2024/02/26 06:41:42;;;;;;;8.50;3.53;;;;;;;0.60;100.00;100494.56;5040286;28;20143;-69
2024/02/26 06:44:07;;;;;;;9.63;3.37;;;;;;;0.68;100.00;100503.72;5040130;28;20041;-69
2024/02/26 06:46:33;;;;;;;8.90;3.37;;;;;;;0.72;100.00;100505.28;5003244;28;20123;-69
2024/02/26 06:49:01;;;;;;;9.83;3.23;;;;;;;0.84;100.00;100498.59;5019499;28;20528;-69
2024/02/26 06:51:26;;;;;;;7.10;3.30;;;;;;;0.79;100.00;100503.19;5003202;28;20155;-69
2024/02/26 06:53:52;;;;;;;10.07;3.30;;;;;;;0.92;100.00;100512.13;5036072;28;20140;-69
2024/02/26 06:56:19;;;;;;;4.63;3.00;;;;;;;0.88;100.00;100514.03;5016102;28;20052;-69
2024/02/26 06:58:45;;;;;;;5.60;3.30;;;;;;;0.95;100.00;100530.28;5000400;28;20049;-70
2024/02/26 07:01:12;;;;;;;5.90;3.30;;;;;;;1.08;100.00;100516.50;5000704;28;20054;-69
2024/02/26 07:03:40;;;;;;;5.90;3.43;;;;;;;1.06;100.00;100520.97;4983363;28;20041;-68
2024/02/26 07:06:06;;;;;;;10.57;3.73;;;;;;;0.69;100.00;100515.03;4983175;28;20148;-69
2024/02/26 07:08:32;;;;;;;7.50;3.33;;;;;;;0.77;100.00;100507.66;4983422;28;20445;-69
2024/02/26 07:10:58;;;;;;;5.10;2.90;;;;;;;0.96;100.00;100505.81;4983266;28;20061;-70
2024/02/26 07:13:24;;;;;;;6.60;3.47;;;;;;;1.19;100.00;100513.34;4984574;28;20037;-69
2024/02/26 07:15:50;;;;;;;7.03;3.57;;;;;;;1.29;100.00;100498.88;4999646;28;20060;-69
2024/02/26 07:18:16;;;;;;;6.50;3.20;;;;;;;1.38;100.00;100514.94;4998698;28;20494;-69
2024/02/26 07:20:42;;;;;;;12.47;3.20;;;;;;;1.36;100.00;100505.47;5035508;28;20070;-69
2024/02/26 07:23:12;;;;;;;7.93;3.50;;;;;;;1.37;100.00;100481.84;4960206;28;20073;-69
2024/02/26 07:25:39;;;;;;;6.27;3.57;;;;;;;1.82;100.00;100486.41;4957001;28;20506;-69
2024/02/26 07:28:06;;;;;;;8.33;3.13;;;;;;;2.34;100.00;100485.25;4960933;28;20062;-72
2024/02/26 07:30:32;;;;;;;6.87;3.17;;;;;;;2.42;100.00;100490.06;4976309;28;20054;-69
2024/02/26 07:32:59;;;;;;;6.60;3.40;;;;;;;2.77;100.00;100483.63;4960841;28;20064;-70
2024/02/26 07:35:28;;;;;;;9.27;3.67;;;;;;;2.84;100.00;100496.34;4993611;28;20050;-69
2024/02/26 07:37:56;;;;;;;7.33;3.10;;;;;;;3.79;100.00;100506.31;4928947;28;20133;-70
2024/02/26 07:40:23;;;;;;;6.93;4.07;;;;;;;4.28;100.00;100499.69;4944142;28;20104;-70
2024/02/26 07:42:49;;;;;;;7.53;3.60;;;;;;;4.80;100.00;100505.03;4960203;28;20065;-70
2024/02/26 07:45:18;;;;;;;10.47;4.07;;;;;;;5.04;93.38;100508.72;4945667;28;20065;-70
2024/02/26 07:47:47;;;;;;;9.00;3.37;;;;;;;5.06;91.20;100548.91;4928649;28;20058;-70
2024/02/26 07:50:14;;;;;;;8.00;3.25;;;;;;;5.15;87.70;100501.75;4975881;28;20046;-71
2024/02/26 07:52:41;;;;;;;11.55;4.88;;;;;;;5.43;85.41;100499.91;4927877;28;20046;-69
2024/02/26 07:55:09;;;;;;;6.88;3.58;;;;;;;5.22;82.97;100505.69;4959554;28;20054;-70
2024/02/26 07:57:35;;;;;;;11.50;3.67;;;;;;;5.04;82.62;100511.34;4979247;28;20053;-70
2024/02/26 08:00:02;;;;;;;8.10;3.83;;;;;;;4.63;83.93;100505.28;4980202;28;20118;-71
2024/02/26 08:02:31;;;;;;;5.93;3.35;;;;;;;4.88;84.95;100492.22;5039829;28;20043;-71
2024/02/26 08:04:57;;;;;;;8.95;3.65;;;;;;;5.25;83.36;100502.00;5022452;28;20056;-70
2024/02/26 08:07:23;;;;;;;5.75;3.38;;;;;;;4.84;82.29;100490.75;5022067;28;20102;-70
2024/02/26 08:09:50;;;;;;;4.90;3.20;;;;;;;5.48;81.04;100493.38;5021763;28;20076;-71
2024/02/26 08:12:16;;;;;;;7.78;3.90;;;;;;;5.75;78.22;100502.00;5022093;28;20087;-70
2024/02/26 08:14:43;;;;;;;8.82;3.90;;;;;;;5.83;77.40;100486.53;5038952;28;20056;-71
2024/02/26 08:17:10;;;;;;;5.22;2.92;;;;;;;6.11;74.22;100475.72;5022067;28;20032;-71
2024/02/26 08:19:36;;;;;;;8.63;3.67;;;;;;;5.92;71.78;100503.50;5021882;28;20056;-71
2024/02/26 08:22:02;;;;;;;6.60;3.25;;;;;;;6.21;73.12;100489.91;4985413;28;20071;-71
2024/02/26 08:24:31;;;;;;;6.50;3.50;;;;;;;6.13;71.02;100487.00;4985476;28;20122;-71
2024/02/26 08:26:57;;;;;;;4.50;2.95;;;;;;;5.75;74.48;100482.72;5001294;28;20090;-71
2024/02/26 08:29:23;;;;;;;4.70;3.10;;;;;;;5.37;74.45;100484.50;4977969;28;20148;-70
2024/02/26 08:31:52;;;;;;;5.57;3.65;;;;;;;5.23;77.90;100509.16;4978444;28;20136;-71
2024/02/26 08:34:20;;;;;;;7.10;3.10;;;;;;;4.97;79.21;100473.19;4978805;28;20455;-71
2024/02/26 08:36:48;;;;;;;6.80;3.65;;;;;;;5.23;79.68;100473.13;4962202;28;20132;-70
2024/02/26 08:39:17;;;;;;;4.20;3.25;;;;;;;5.46;78.86;100497.91;4978072;28;20057;-71
2024/02/26 08:41:47;;;;;;;8.65;4.00;;;;;;;5.72;79.24;100477.66;4962971;28;20061;-71
2024/02/26 08:44:14;;;;;;;5.50;3.90;;;;;;;5.92;77.88;100477.16;4978847;28;20042;-71
2024/02/26 08:46:40;;;;;;;6.10;4.00;;;;;;;6.37;74.61;100472.03;4962680;28;20145;-71
2024/02/26 08:49:06;;;;;;;8.27;3.40;;;;;;;6.49;72.21;100468.50;4978288;28;20474;-71
2024/02/26 08:51:34;;;;;;;8.85;3.30;;;;;;;6.86;71.17;100485.97;4962181;28;20041;-71
2024/02/26 08:54:01;;;;;;;6.97;3.63;;;;;;;6.64;70.07;100467.38;4978258;28;20488;-71
2024/02/26 08:56:27;;;;;;;4.72;3.30;;;;;;;7.68;69.41;100480.53;4946125;28;20042;-71
2024/02/26 08:58:57;;;;;;;10.13;3.85;;;;;;;8.11;65.26;100478.81;5005152;28;20111;-71
2024/02/26 09:01:26;;;;;;;7.43;3.20;;;;;;;8.19;63.12;100470.28;5001177;28;20102;-70
2024/02/26 09:03:54;;;;;;;9.63;3.28;;;;;;;8.29;61.00;100466.78;5017061;28;20356;-71
2024/02/26 09:06:20;;;;;;;5.57;3.70;;;;;;;7.66;58.65;100474.50;5010140;28;20048;-71
2024/02/26 09:08:46;;;;;;;5.25;2.83;;;;;;;7.61;61.13;100454.69;5037653;28;20359;-71
2024/02/26 09:11:12;;;;;;;4.70;3.00;;;;;;;8.33;61.90;100464.75;5054213;28;20537;-71
2024/02/26 09:13:40;;;;;;;9.55;4.07;;;;;;;8.43;57.61;100466.53;5021157;28;20048;-71
2024/02/26 09:16:09;;;;;;;6.70;3.25;;;;;;;8.98;57.77;100460.16;5037955;28;20071;-71
2024/02/26 09:18:37;;;;;;;8.05;4.53;;;;;;;8.43;55.28;100466.53;5039532;28;20097;-71
2024/02/26 09:21:06;;;;;;;7.72;3.40;;;;;;;8.30;55.22;100465.81;5071228;28;20123;-72
2024/02/26 09:23:34;;;;;;;11.98;4.75;;;;;;;7.81;55.24;100467.19;5038107;28;20037;-71
2024/02/26 09:26:03;;;;;;;7.25;3.55;;;;;;;8.01;56.70;100464.63;5038736;28;20045;-71
2024/02/26 09:28:31;;;;;;;5.93;3.05;;;;;;;7.94;55.76;100465.25;5001189;28;20243;-71
2024/02/26 09:30:57;;;;;;;4.70;2.83;;;;;;;7.28;56.51;100479.25;5000946;28;20137;-71
2024/02/26 09:33:23;;;;;;;5.95;2.83;;;;;;;7.14;59.83;100458.31;4984211;28;20053;-71
2024/02/26 09:35:54;;;;;;;7.97;3.10;;;;;;;7.31;60.84;100454.38;5000157;28;20502;-70
2024/02/26 09:38:22;;;;;;;6.10;2.83;;;;;;;7.03;58.70;100463.56;5007007;28;20059;-70
2024/02/26 09:40:47;;;;;;;8.18;3.33;;;;;;;6.38;60.48;100460.53;5006403;28;20058;-71
2024/02/26 09:43:17;;;;;;;9.15;3.95;;;;;;;6.38;63.86;100454.44;5006638;28;20058;-71
2024/02/26 09:45:46;;;;;;;9.85;3.38;;;;;;;6.25;64.43;100454.47;5006542;28;20050;-71
2024/02/26 09:48:16;;;;;;;4.22;2.90;;;;;;;6.84;66.88;100450.09;4987436;28;20058;-72
2024/02/26 09:50:43;;;;;;;6.20;3.03;;;;;;;6.90;64.45;100449.63;4955868;28;20051;-71
2024/02/26 09:53:18;;;;;;;12.32;4.47;;;;;;;7.05;62.64;100455.53;4970609;28;20051;-70
2024/02/26 09:55:47;;;;;;;6.53;4.03;;;;;;;7.31;61.82;100462.31;4954690;28;20081;-71
2024/02/26 09:58:18;;;;;;;5.38;3.95;;;;;;;7.44;62.18;100458.59;4954676;28;20051;-71
2024/02/26 10:00:47;;;;;;;7.20;3.53;;;;;;;7.95;61.42;100454.53;4970298;28;20043;-71
2024/02/26 10:03:15;;;;;;;8.45;3.70;;;;;;;8.02;61.02;100455.75;4938677;28;20149;-71
2024/02/26 10:05:43;;;;;;;8.90;4.47;;;;;;;7.38;59.57;100448.50;4935534;29;20051;-71
2024/02/26 10:08:11;;;;;;;9.23;4.20;;;;;;;7.52;59.23;100444.81;4921627;28;20058;-71
2024/02/26 10:10:38;;;;;;;7.38;3.97;;;;;;;7.69;60.37;100445.19;4974933;28;20551;-72
2024/02/26 10:13:09;;;;;;;8.30;3.90;;;;;;;7.95;58.14;100451.06;4973997;28;20050;-71
2024/02/26 10:15:36;;;;;;;9.00;4.67;;;;;;;7.53;57.59;100454.44;4974022;28;20457;-70
2024/02/26 10:18:06;;;;;;;9.00;4.40;;;;;;;7.31;59.49;100447.31;4974610;28;20118;-71
2024/02/26 10:20:35;;;;;;;9.15;4.80;;;;;;;6.78;60.13;100442.63;4964339;28;20048;-71
2024/02/26 10:23:05;;;;;;;8.27;4.00;;;;;;;7.13;63.10;100432.03;4997105;28;20049;-70
2024/02/26 10:25:32;;;;;;;9.20;5.25;;;;;;;6.74;60.72;100449.91;4996751;28;20086;-71
2024/02/26 10:28:04;;;;;;;14.20;4.63;;;;;;;6.42;61.55;100453.25;4980773;28;20553;-71
2024/02/26 10:30:30;;;;;;;8.52;3.88;;;;;;;6.31;65.10;100443.47;4980787;28;20080;-70
2024/02/26 10:32:57;;;;;;;9.90;4.97;;;;;;;6.05;66.31;100433.97;4980513;28;20475;-70
2024/02/26 10:35:25;;;;;;;12.18;4.70;;;;;;;5.80;68.22;100433.13;4983837;28;20051;-71
2024/02/26 10:37:52;;;;;;;11.68;4.65;;;;;;;6.11;70.93;100420.34;4999684;28;20138;-71
2024/02/26 10:40:22;;;;;;;10.50;4.78;;;;;;;6.04;69.59;100415.63;4958031;28;20417;-70
2024/02/26 10:42:49;;;;;;;10.27;5.35;;;;;;;5.67;69.57;100434.97;4933088;28;20050;-71
2024/02/26 10:45:17;;;;;;;13.52;5.53;;;;;;;5.80;69.80;100426.09;4983592;28;20041;-71
2024/02/26 10:47:45;;;;;;;12.10;4.97;;;;;;;6.01;69.31;100424.56;4983618;28;20033;-71
2024/02/26 10:50:13;;;;;;;7.63;4.75;;;;;;;6.52;68.60;100423.44;4967432;28;20060;-71
2024/02/26 10:52:44;;;;;;;8.30;4.90;;;;;;;6.92;66.85;100420.47;4983807;28;20180;-71
2024/02/26 10:55:18;;;;;;;8.80;4.30;;;;;;;7.45;64.83;100433.88;4952164;28;20045;-72
2024/02/26 10:57:45;;;;;;;10.02;4.45;;;;;;;7.37;63.18;100425.69;4997616;28;20138;-71
2024/02/26 11:00:14;;;;;;;7.97;4.10;;;;;;;7.80;61.08;100423.19;4941356;28;20051;-71
2024/02/26 11:02:41;;;;;;;8.25;4.60;;;;;;;7.86;59.71;100452.63;4957423;28;20054;-71
2024/02/26 11:05:12;;;;;;;7.47;4.00;;;;;;;7.65;60.74;100404.09;4957695;28;20145;-71
2024/02/26 11:07:38;;;;;;;12.60;4.60;;;;;;;7.62;59.51;100414.06;4957769;28;20050;-71
2024/02/26 11:10:09;;;;;;;10.55;4.38;;;;;;;7.75;59.18;100401.56;4942677;28;20109;-71
2024/02/26 11:12:38;;;;;;;8.73;4.68;;;;;;;8.12;58.58;100408.22;5015190;28;20072;-71
2024/02/26 11:15:06;;;;;;;13.73;5.10;;;;;;;8.08;56.95;100422.66;4999137;28;20072;-71
2024/02/26 11:17:34;;;;;;;10.88;4.70;;;;;;;8.20;56.99;100409.28;4999136;28;20043;-71
2024/02/26 11:20:02;;;;;;;8.95;5.10;;;;;;;9.01;56.49;100388.38;5015573;28;20056;-72
2024/02/26 11:22:36;;;;;;;12.00;4.57;;;;;;;8.78;53.51;100400.06;4967109;28;20068;-72
2024/02/26 11:25:04;;;;;;;10.00;4.18;;;;;;;8.51;54.91;100402.38;4983138;28;20199;-72